Latest Weather Observations for Armidale Airport

IDN60801

Issued at 2:42 am EST Thursday 25 April 2019 (issued every 10 minutes, with the page automatically refreshed every 10 minutes)

About weather observations | Map of weather stations | Latest weather observations for NSW | Other Formats
Station Details ID: 056238 Name: ARMIDALE AIRPORT AWS Lat: -30.53 Lon: 151.62 Height: 1079.0 m
Data from the previous 72 hours. | See also: Recent months at Armidale Airport
Date/Time
EST
Temp
°C
App
Temp
°C
Dew
Point
°C
Rel
Hum
%
Delta-T
°C
Wind Press
QNH
hPa
Press
MSL
hPa
Rain since
9am
mm
Dir  Spd
km/h
Gust
km/h
Spd
kts
Gust
kts
25/02:30am 9.3 6.7 9.2 99 0.1 ENE 13 13 7 7 1023.9 1020.8 0.2
25/02:00am 9.2 6.5 9.1 99 0.1 ENE 13 13 7 7 1024.1 1021.0 0.2
25/01:59am 9.2 6.5 9.1 99 0.1 ENE 13 13 7 7 1024.1 1021.0 0.2
25/01:30am 10.2 8.2 10.1 99 0.1 E 11 13 6 7 1024.4 1021.2 0.2
25/01:00am 10.3 8.3 10.1 99 0.1 E 11 13 6 7 1024.7 1021.6 0.2
25/12:30am 10.5 8.2 10.3 99 0.1 E 13 15 7 8 1024.8 1021.7 0.2
25/12:00am 9.8 8.0 9.5 98 0.2 ENE 9 11 5 6 1025.0 1021.9 0.2
 
Date/Time
EST
Temp
°C
App
Temp
°C
Dew
Point
°C
Rel
Hum
%
Delta-T
°C
Wind Press
QNH
hPa
Press
MSL
hPa
Rain since
9am
mm
Dir  Spd
km/h
Gust
km/h
Spd
kts
Gust
kts
24/11:30pm 10.6 8.7 10.4 99 0.1 E 11 13 6 7 1024.9 1021.8 0.2
24/11:00pm 11.2 8.7 10.9 98 0.2 E 15 17 8 9 1025.0 1021.9 0.2
24/10:30pm 11.7 9.2 11.1 96 0.3 E 15 17 8 9 1025.4 1022.3 0.2
24/10:00pm 11.8 10.1 11.3 97 0.3 E 11 15 6 8 1025.6 1022.5 0.2
24/09:30pm 11.9 9.5 11.3 96 0.3 E 15 17 8 9 1025.6 1022.5 0.2
24/09:00pm 12.0 9.9 11.1 94 0.5 ENE 13 15 7 8 1025.5 1022.4 0.2
24/08:30pm 12.7 10.3 11.4 92 0.7 ENE 15 19 8 10 1025.4 1022.3 0.2
24/08:00pm 13.1 10.8 11.7 91 0.8 ENE 15 19 8 10 1025.2 1022.1 0.2
24/07:30pm 13.6 11.0 12.0 90 0.9 ENE 17 20 9 11 1025.5 1022.4 0.2
24/07:00pm 14.1 11.5 12.0 87 1.2 ENE 17 20 9 11 1025.2 1022.1 0.2
24/06:30pm 14.6 11.9 11.7 83 1.6 ENE 17 20 9 11 1025.0 1021.9 0.2
24/06:00pm 15.6 12.9 11.6 77 2.3 E 17 22 9 12 1024.8 1021.7 0.2
24/05:30pm 16.2 14.1 11.2 72 2.8 E 13 17 7 9 1024.8 1021.7 0.2
24/05:00pm 17.3 14.6 11.6 69 3.3 E 17 20 9 11 1024.7 1021.6 0.2
24/04:30pm 18.6 15.8 11.4 63 4.1 E 17 20 9 11 1024.4 1021.2 0.2
24/04:00pm 18.0 15.1 10.9 63 4.0 E 17 24 9 13 1024.1 1021.0 0.2
24/03:30pm 19.7 16.2 10.9 57 5.1 E 20 24 11 13 1024.1 1021.0 0.2
24/03:00pm 20.4 17.7 11.6 57 5.1 ESE 17 26 9 14 1024.1 1021.0 0.2
24/02:30pm 20.5 16.8 10.3 52 5.8 SE 20 26 11 14 1024.2 1021.1 0.2
24/02:00pm 21.1 19.9 8.0 43 7.2 NNE 4 13 2 7 1024.4 1021.2 0.2
24/01:30pm 20.6 18.2 7.2 42 7.2 ENE 9 15 5 8 1024.6 1021.5 0.2
24/01:00pm 20.4 17.7 7.4 43 7.0 N 11 17 6 9 1024.9 1021.8 0.2
24/12:30pm 20.3 18.0 7.3 43 7.0 NNE 9 20 5 11 1025.4 1022.3 0.2
24/12:00pm 19.5 16.5 9.1 51 5.7 NNE 15 22 8 12 1025.6 1022.5 0.2
24/11:30am 19.0 15.6 9.2 53 5.4 NE 17 26 9 14 1026.0 1022.9 0.2
24/11:00am 18.2 15.5 10.3 60 4.4 NE 15 24 8 13 1026.5 1023.4 0.2
24/10:30am 17.4 14.0 10.5 64 3.9 NE 19 26 10 14 1026.9 1023.8 0.0
24/10:00am 16.5 12.9 10.6 68 3.3 ENE 20 28 11 15 1027.1 1024.1 0.0
24/09:30am 15.0 11.2 11.0 77 2.2 ENE 22 28 12 15 1027.2 1024.2 0.0
24/09:00am 15.0 10.5 11.4 79 2.0 ENE 26 33 14 18 1027.2 1024.2 0.0
24/08:30am 13.7 10.0 11.4 86 1.3 ENE 22 28 12 15 1027.2 1024.2 0.0
24/08:00am 12.1 9.1 11.8 98 0.2 E 19 24 10 13 1027.0 1024.0 0.0
24/07:30am 10.9 7.9 10.7 99 0.1 E 17 24 9 13 1027.1 1024.1 0.0
24/07:03am 10.6 7.9 10.4 99 0.1 E 15 19 8 10 1026.8 1023.7 0.0
24/07:00am 10.7 8.0 10.5 99 0.1 E 15 19 8 10 1026.7 1023.6 0.0
24/06:50am 10.6 7.9 10.4 99 0.1 E 15 20 8 11 1026.6 1023.5 0.0
24/06:30am 10.7 7.3 10.5 99 0.1 E 19 24 10 13 1026.4 1023.3 0.0
24/06:15am 10.8 7.4 10.6 99 0.1 E 19 24 10 13 1026.2 1023.2 0.0
24/06:00am 10.9 7.5 10.7 99 0.1 E 19 24 10 13 1026.4 1023.3 0.0
24/05:30am 11.5 8.3 11.3 99 0.1 E 19 28 10 15 1026.0 1022.9 0.0
24/05:00am 11.8 8.7 11.6 99 0.1 E 19 26 10 14 1025.7 1022.6 0.0
24/04:30am 12.2 9.2 12.0 99 0.1 ESE 19 24 10 13 1025.8 1022.7 0.0
24/04:00am 12.3 9.3 12.1 99 0.1 E 19 28 10 15 1025.7 1022.6 0.0
24/03:47am 12.3 9.3 12.0 98 0.2 E 19 26 10 14 1025.6 1022.5 0.0
24/03:30am 12.4 9.4 11.8 96 0.3 E 19 24 10 13 1025.6 1022.5 0.0
24/03:00am 12.4 9.4 11.8 96 0.3 ENE 19 24 10 13 1025.8 1022.7 0.0
24/02:30am 12.3 9.1 11.8 97 0.3 ENE 20 26 11 14 1025.8 1022.7 0.0
24/02:17am 12.3 9.3 11.8 97 0.3 ENE 19 24 10 13 1025.9 1022.8 0.0
24/02:00am 12.3 9.1 11.8 97 0.3 ENE 20 24 11 13 1026.0 1022.9 0.0
24/01:30am 12.3 9.1 11.8 97 0.3 ENE 20 26 11 14 1026.6 1023.5 0.0
24/01:00am 12.3 9.1 11.8 97 0.3 ENE 20 30 11 16 1026.6 1023.5 0.0
24/12:30am 12.4 8.3 11.5 94 0.5 E 24 32 13 17 1026.6 1023.5 0.0
24/12:19am 12.2 8.1 11.4 95 0.4 E 24 32 13 17 1026.5 1023.4 0.0
24/12:00am 11.9 8.1 11.3 96 0.3 E 22 30 12 16 1026.6 1023.5 0.0
 
Date/Time
EST
Temp
°C
App
Temp
°C
Dew
Point
°C
Rel
Hum
%
Delta-T
°C
Wind Press
QNH
hPa
Press
MSL
hPa
Rain since
9am
mm
Dir  Spd
km/h
Gust
km/h
Spd
kts
Gust
kts
23/11:30pm 11.8 8.9 11.0 95 0.4 E 17 22 9 12 1027.0 1024.0 0.0
23/11:00pm 11.8 9.1 10.5 92 0.7 ESE 15 19 8 10 1027.2 1024.2 0.0
23/10:30pm 12.3 9.0 10.9 91 0.8 E 19 22 10 12 1027.7 1024.6 0.0
23/10:00pm 12.8 10.3 11.2 90 0.9 E 15 19 8 10 1028.1 1025.1 0.0
23/09:30pm 13.2 10.2 11.9 92 0.7 ENE 19 22 10 12 1028.5 1025.4 0.0
23/09:00pm 13.7 10.6 12.3 91 0.8 E 20 24 11 13 1028.5 1025.4 0.0
23/08:30pm 13.7 10.7 12.1 90 0.9 E 19 24 10 13 1028.5 1025.4 0.0
23/08:00pm 14.0 11.1 12.4 90 0.9 E 19 24 10 13 1028.6 1025.5 0.0
23/07:30pm 14.1 12.0 12.3 89 1.0 E 15 20 8 11 1028.4 1025.3 0.0
23/07:00pm 14.3 12.5 12.0 86 1.3 E 13 17 7 9 1028.1 1025.1 0.0
23/06:30pm 14.5 12.3 12.0 85 1.4 ESE 15 20 8 11 1027.9 1024.9 0.0
23/06:00pm 14.8 13.0 12.1 84 1.5 E 13 17 7 9 1027.6 1024.5 0.0
23/05:30pm 15.0 12.4 12.0 82 1.7 ESE 17 20 9 11 1027.4 1024.3 0.0
23/05:00pm 15.4 13.0 12.5 83 1.7 ESE 17 22 9 12 1027.0 1024.0 0.0
23/04:30pm 15.6 13.2 12.7 83 1.7 ESE 17 24 9 13 1026.9 1023.8 0.0
23/04:00pm 16.3 14.0 13.0 81 1.9 ESE 17 22 9 12 1026.8 1023.7 0.0
23/03:30pm 16.5 13.8 13.0 80 2.1 ESE 19 24 10 13 1026.5 1023.4 0.0
23/03:00pm 16.7 14.0 12.8 78 2.3 ESE 19 24 10 13 1026.5 1023.4 0.0
23/02:30pm 17.7 16.0 12.4 71 3.1 E 13 17 7 9 1026.4 1023.3 0.0
23/02:00pm 18.1 15.7 12.5 70 3.3 ENE 17 24 9 13 1026.2 1023.2 0.0
23/01:30pm 17.3 14.9 12.8 75 2.6 E 17 26 9 14 1026.6 1023.5 0.0
23/01:00pm 17.2 13.8 12.5 74 2.7 ENE 22 32 12 17 1027.0 1024.0 0.0
23/12:30pm 17.6 14.8 12.5 72 3.0 E 19 24 10 13 1027.5 1024.4 0.0
23/12:00pm 17.8 14.7 12.3 70 3.2 E 20 28 11 15 1027.6 1024.5 0.0
23/11:30am 17.7 13.7 11.7 68 3.5 E 24 30 13 16 1027.9 1024.9 0.0
23/11:00am 17.8 13.4 11.8 68 3.5 E 26 32 14 17 1028.0 1025.0 0.0
23/10:30am 17.8 13.7 11.6 67 3.6 ENE 24 35 13 19 1028.2 1025.2 0.0
23/10:00am 17.0 12.2 11.5 70 3.1 E 28 35 15 19 1028.5 1025.4 0.0
23/09:30am 16.9 12.1 11.6 71 3.0 NE 28 33 15 18 1028.7 1025.7 0.0
23/09:00am 15.5 11.5 11.7 78 2.2 E 24 30 13 16 1028.9 1025.9 0.2
23/08:30am 14.7 10.8 12.0 84 1.5 ENE 24 32 13 17 1028.7 1025.7 0.2
23/08:00am 13.3 10.0 11.7 90 0.9 ENE 20 26 11 14 1028.4 1025.3 0.2
23/07:31am 12.6 9.1 12.1 97 0.3 ENE 22 28 12 15 1028.1 1025.1 0.2
23/07:30am 12.6 9.1 12.1 97 0.3 E 22 28 12 15 1028.1 1025.1 0.2
23/07:07am 11.6 8.8 11.4 99 0.1 E 17 20 9 11 1027.9 1024.9 0.2
23/07:00am 11.4 8.2 11.2 99 0.1 E 19 24 10 13 1027.9 1024.9 0.2
23/06:30am 11.3 7.9 11.1 99 0.1 E 20 24 11 13 1027.5 1024.4 0.2
23/06:29am 11.2 7.9 11.0 99 0.1 E 19 24 10 13 1027.5 1024.4 0.2
23/06:00am 11.4 8.6 11.2 99 0.1 E 17 20 9 11 1027.2 1024.2 0.2
23/05:30am 11.7 8.9 11.5 99 0.1 ENE 17 22 9 12 1027.1 1024.1 0.2
23/05:00am 11.5 8.7 11.3 99 0.1 E 17 22 9 12 1026.8 1023.7 0.2
23/04:30am 11.5 8.7 11.2 98 0.2 E 17 22 9 12 1026.8 1023.7 0.2
23/04:00am 11.6 8.4 11.4 99 0.1 E 19 26 10 14 1026.6 1023.5 0.2
23/03:30am 11.9 8.8 11.7 99 0.1 ENE 19 22 10 12 1026.6 1023.5 0.2
23/03:07am 11.6 8.4 11.4 99 0.1 ENE 19 22 10 12 1026.4 1023.3 0.2
23/03:00am 11.8 8.7 11.6 99 0.1 ENE 19 22 10 12 1026.4 1023.3 0.2
23/02:30am 12.3 9.3 12.1 99 0.1 E 19 20 10 11 1026.8 1023.7 0.2
23/02:00am 11.9 9.2 11.7 99 0.1 E 17 19 9 10 1026.8 1023.7 0.2
23/01:44am 12.0 9.3 11.8 99 0.1 E 17 22 9 12 1026.8 1023.7 0.2
23/01:31am 12.2 9.6 12.0 99 0.1 E 17 20 9 11 1026.9 1023.8 0.2
23/01:30am 12.2 9.6 12.0 99 0.1 E 17 20 9 11 1026.9 1023.8 0.2
23/01:02am 12.2 9.6 12.0 99 0.1 E 17 20 9 11 1027.2 1024.2 0.2
23/01:00am 12.1 9.5 11.9 99 0.1 E 17 20 9 11 1027.2 1024.2 0.2
23/12:47am 12.1 9.8 11.9 99 0.1 E 15 20 8 11 1027.2 1024.2 0.2
23/12:30am 11.9 9.6 11.7 99 0.1 E 15 19 8 10 1027.2 1024.2 0.2
23/12:13am 11.7 9.7 11.5 99 0.1 E 13 17 7 9 1027.4 1024.3 0.2
23/12:00am 11.4 9.3 11.2 99 0.1 E 13 15 7 8 1027.2 1024.2 0.2
 
Date/Time
EST
Temp
°C
App
Temp
°C
Dew
Point
°C
Rel
Hum
%
Delta-T
°C
Wind Press
QNH
hPa
Press
MSL
hPa
Rain since
9am
mm
Dir  Spd
km/h
Gust
km/h
Spd
kts
Gust
kts
22/11:30pm 11.9 9.2 11.7 99 0.1 ENE 17 19 9 10 1027.4 1024.3 0.2
22/11:00pm 12.2 10.0 12.0 99 0.1 E 15 19 8 10 1027.5 1024.4 0.2
22/10:30pm 12.7 10.6 12.5 99 0.1 E 15 20 8 11 1027.6 1024.5 0.2
22/10:00pm 12.3 10.5 12.1 99 0.1 E 13 17 7 9 1027.5 1024.4 0.2
22/09:30pm 12.1 10.6 11.9 99 0.1 E 11 15 6 8 1027.4 1024.3 0.2
22/09:00pm 12.5 10.4 12.3 99 0.1 E 15 19 8 10 1027.2 1024.2 0.2
22/08:30pm 12.4 10.6 12.1 98 0.2 E 13 15 7 8 1027.1 1024.1 0.2
22/08:00pm 12.5 11.3 11.7 95 0.4 E 9 13 5 7 1027.1 1024.1 0.2
22/07:30pm 13.7 12.0 12.3 91 0.8 E 13 15 7 8 1026.8 1023.7 0.2
22/07:00pm 14.4 12.7 12.4 88 1.1 E 13 17 7 9 1026.2 1023.2 0.2
22/06:30pm 15.0 13.4 12.7 86 1.3 E 13 17 7 9 1026.0 1022.9 0.2
22/06:00pm 15.7 13.2 12.3 80 2.0 E 17 20 9 11 1025.6 1022.5 0.2
22/05:30pm 16.5 14.4 12.3 76 2.4 E 15 20 8 11 1025.0 1021.9 0.2
22/05:00pm 17.6 15.0 12.1 70 3.2 ESE 17 24 9 13 1024.6 1021.5 0.2
22/04:30pm 18.8 15.8 9.3 54 5.3 ENE 15 20 8 11 1024.4 1021.2 0.2
22/04:00pm 19.1 15.4 9.3 53 5.4 NE 19 24 10 13 1024.4 1021.2 0.2
22/03:30pm 19.9 16.2 9.5 51 5.8 NNE 19 26 10 14 1024.1 1021.0 0.2
22/03:00pm 19.8 15.9 9.4 51 5.8 ENE 20 30 11 16 1024.1 1021.0 0.2
22/02:30pm 20.2 17.1 10.3 53 5.6 NE 17 24 9 13 1024.2 1021.1 0.2
22/02:00pm 20.2 17.5 10.3 53 5.6 NE 15 20 8 11 1024.2 1021.1 0.2
22/01:30pm 19.8 16.9 9.7 52 5.7 NE 15 22 8 12 1024.6 1021.5 0.2
22/01:00pm 20.0 16.5 10.1 53 5.6 ENE 19 26 10 14 1024.6 1021.5 0.2
22/12:30pm 19.2 16.2 10.5 57 4.9 NE 17 24 9 13 1025.0 1021.9 0.2
22/12:00pm 19.2 15.6 10.7 58 4.8 NE 20 26 11 14 1025.1 1022.0 0.2
22/11:30am 17.7 13.7 10.3 62 4.2 ENE 22 30 12 16 1025.6 1022.5 0.2
22/11:00am 17.9 13.7 11.0 64 3.9 ENE 24 30 13 16 1025.8 1022.7 0.2
22/10:30am 17.6 13.9 11.4 67 3.6 NE 22 30 12 16 1025.9 1022.8 0.2
22/10:00am 16.1 13.0 11.7 75 2.5 ENE 19 26 10 14 1026.0 1022.9 0.2
22/09:30am 14.9 11.8 12.2 84 1.6 ENE 20 26 11 14 1026.1 1023.1 0.0
22/09:00am 13.2 9.8 11.4 89 1.0 ENE 20 26 11 14 1026.1 1023.1 0.0
22/08:30am 12.0 8.7 10.9 93 0.6 E 19 24 10 13 1026.0 1022.9 0.0
22/08:00am 11.6 8.0 10.5 93 0.6 ENE 20 24 11 13 1025.6 1022.5 0.0
22/07:30am 11.5 8.1 11.2 98 0.2 ENE 20 26 11 14 1025.4 1022.3 0.0
22/07:00am 10.4 7.3 10.2 99 0.1 ENE 17 20 9 11 1025.2 1022.1 0.0
22/06:30am 10.0 6.4 9.9 99 0.1 ENE 19 24 10 13 1024.7 1021.6 0.0
22/06:00am 10.4 6.9 10.2 99 0.1 ENE 19 22 10 12 1024.7 1021.6 0.0
22/05:30am 10.3 6.7 10.0 98 0.2 ENE 19 22 10 12 1024.5 1021.4 0.0
22/05:00am 10.4 7.2 9.9 97 0.3 ENE 17 20 9 11 1024.6 1021.5 0.0
22/04:30am 10.7 7.2 10.1 96 0.3 ENE 19 20 10 11 1024.5 1021.4 0.0
22/04:00am 10.6 7.1 10.1 97 0.3 ENE 19 22 10 12 1024.5 1021.4 0.0
22/03:30am 10.7 7.0 10.2 97 0.3 ENE 20 22 11 12 1024.4 1021.2 0.0
22/03:00am 11.1 7.5 10.5 96 0.3 ENE 20 24 11 13 1024.5 1021.4 0.0

Other formats

Comma delimited format used in spreadsheet applications
http://www.bom.gov.au/fwo/IDN60801/IDN60801.95773.axf

JavaScript Object Notation format (JSON) in row-major order
http://www.bom.gov.au/fwo/IDN60801/IDN60801.95773.json

Data quality

Most of these data are generated automatically and are frequently updated. Quality checks on data are not normally performed. It is possible for incorrect values to appear. Refer to information at About Latest Weather Observations and please check the disclaimer before using these data.